Current | Forecast
Updated: 9:30 AM CEST on April 26, 2017
Observed at Asturias, Spain
Temperature 7°C
Windchill 6°C
Humidity 87%
Dew Point 5°C
Wind SE at 7 km/h
Pressure 1016 hPa (Steady)
Conditions Mostly Cloudy
Visibility 8.0 kilometers
UV 1 out of 16
Clouds Scattered Clouds (SCT) : 609 m
Mostly Cloudy (BKN) : 1219 m
Yesterday's Maximum 13°C
Yesterday's Minimum 8°C approx.
Yesterday's Heating Degree Days 14 approx.
Sunrise7:22 AM CEST
Sunset9:18 PM CEST
Moon Rise7:41 AM CEST
Moon Set9:22 PM CEST
Moon PhaseMoon Phase
Waning Crescent
Raw METARMETAR LEAS 260730Z 14004KT 100V170 8000 SCT020 BKN040 07/05 Q1016 TEMPO 3000 RA


Monday
. High: 71° F.
Tuesday
. High: 71° F.
Wednesday
. High: 60° F.
Thursday
. High: 62° F.
Friday
. High: 75° F.
Saturday
. High: 73° F.
Sunday
. High: 68° F.
Monday
. High: 82° F.

Click here for Marine Information
Scientific forecaster discussion (NWS)

Units: English | Metric

Find the Weather for any City, State or Zipcode, or Country:

U.S. State List | Severe Weather | Tropical Storms | Ski Conditions
United States | Canada | Central America | South America | Asia | Europe | Australia | Africa | Islands

Weather Underground

© Copyright 2017
The Weather Company, LLC